sensor_id;sensor_type;location;lat;lon;timestamp;P1;durP1;ratioP1;P2;durP2;ratioP2
32329;SDS011;18807;52.434;13.238;2022-10-31T00:07:33;35.03;;;23.60;;
32329;SDS011;18807;52.434;13.238;2022-10-31T00:15:08;33.88;;;22.30;;
32329;SDS011;18807;52.434;13.238;2022-10-31T00:22:42;34.08;;;22.45;;
32329;SDS011;18807;52.434;13.238;2022-10-31T00:30:17;33.40;;;23.10;;
32329;SDS011;18807;52.434;13.238;2022-10-31T00:37:51;30.83;;;22.42;;
32329;SDS011;18807;52.434;13.238;2022-10-31T00:45:27;35.27;;;22.77;;
32329;SDS011;18807;52.434;13.238;2022-10-31T00:53:00;31.80;;;21.40;;
32329;SDS011;18807;52.434;13.238;2022-10-31T01:00:35;32.15;;;22.08;;
32329;SDS011;18807;52.434;13.238;2022-10-31T01:08:09;30.52;;;22.23;;
32329;SDS011;18807;52.434;13.238;2022-10-31T01:15:44;33.08;;;23.38;;
32329;SDS011;18807;52.434;13.238;2022-10-31T01:30:53;32.22;;;21.30;;
32329;SDS011;18807;52.434;13.238;2022-10-31T01:38:27;28.58;;;20.42;;
32329;SDS011;18807;52.434;13.238;2022-10-31T01:46:02;30.33;;;19.40;;
32329;SDS011;18807;52.434;13.238;2022-10-31T01:53:36;29.35;;;19.48;;
32329;SDS011;18807;52.434;13.238;2022-10-31T02:01:11;32.23;;;20.43;;
32329;SDS011;18807;52.434;13.238;2022-10-31T02:08:48;29.95;;;19.73;;
32329;SDS011;18807;52.434;13.238;2022-10-31T02:16:24;25.13;;;18.30;;
32329;SDS011;18807;52.434;13.238;2022-10-31T02:31:39;31.73;;;19.45;;
32329;SDS011;18807;52.434;13.238;2022-10-31T02:39:18;29.77;;;19.35;;
32329;SDS011;18807;52.434;13.238;2022-10-31T02:46:59;24.10;;;18.20;;
32329;SDS011;18807;52.434;13.238;2022-10-31T02:54:36;27.48;;;17.85;;
32329;SDS011;18807;52.434;13.238;2022-10-31T03:02:15;23.58;;;18.13;;
32329;SDS011;18807;52.434;13.238;2022-10-31T03:10:03;26.08;;;19.98;;
32329;SDS011;18807;52.434;13.238;2022-10-31T03:17:45;28.08;;;19.88;;
32329;SDS011;18807;52.434;13.238;2022-10-31T03:25:25;27.55;;;19.20;;
32329;SDS011;18807;52.434;13.238;2022-10-31T03:33:02;24.17;;;17.02;;
32329;SDS011;18807;52.434;13.238;2022-10-31T03:40:41;27.77;;;16.77;;
32329;SDS011;18807;52.434;13.238;2022-10-31T03:48:20;23.52;;;17.83;;
32329;SDS011;18807;52.434;13.238;2022-10-31T03:55:56;25.23;;;17.15;;
32329;SDS011;18807;52.434;13.238;2022-10-31T04:03:36;22.17;;;16.25;;
32329;SDS011;18807;52.434;13.238;2022-10-31T04:11:12;20.30;;;15.90;;
32329;SDS011;18807;52.434;13.238;2022-10-31T04:18:49;23.40;;;17.25;;
32329;SDS011;18807;52.434;13.238;2022-10-31T04:26:23;24.65;;;16.73;;
32329;SDS011;18807;52.434;13.238;2022-10-31T04:33:58;25.48;;;17.63;;
32329;SDS011;18807;52.434;13.238;2022-10-31T04:49:07;22.33;;;17.52;;
32329;SDS011;18807;52.434;13.238;2022-10-31T04:56:40;24.05;;;17.42;;
32329;SDS011;18807;52.434;13.238;2022-10-31T05:04:16;23.63;;;17.67;;
32329;SDS011;18807;52.434;13.238;2022-10-31T05:19:24;22.30;;;16.50;;
32329;SDS011;18807;52.434;13.238;2022-10-31T05:26:58;20.38;;;15.65;;
32329;SDS011;18807;52.434;13.238;2022-10-31T05:34:33;29.20;;;19.75;;
32329;SDS011;18807;52.434;13.238;2022-10-31T05:42:07;29.73;;;20.50;;
32329;SDS011;18807;52.434;13.238;2022-10-31T05:49:42;30.63;;;19.27;;
32329;SDS011;18807;52.434;13.238;2022-10-31T05:57:15;26.35;;;18.80;;
32329;SDS011;18807;52.434;13.238;2022-10-31T06:04:50;21.45;;;16.20;;
32329;SDS011;18807;52.434;13.238;2022-10-31T06:12:24;22.55;;;16.58;;
32329;SDS011;18807;52.434;13.238;2022-10-31T06:19:59;25.55;;;17.50;;
32329;SDS011;18807;52.434;13.238;2022-10-31T06:27:33;24.33;;;17.15;;
32329;SDS011;18807;52.434;13.238;2022-10-31T06:35:09;25.70;;;16.92;;
32329;SDS011;18807;52.434;13.238;2022-10-31T06:42:42;23.73;;;16.67;;
32329;SDS011;18807;52.434;13.238;2022-10-31T06:50:18;20.45;;;15.82;;
32329;SDS011;18807;52.434;13.238;2022-10-31T06:57:53;22.65;;;15.95;;
32329;SDS011;18807;52.434;13.238;2022-10-31T07:05:34;25.98;;;16.27;;
32329;SDS011;18807;52.434;13.238;2022-10-31T07:13:09;21.60;;;17.15;;
32329;SDS011;18807;52.434;13.238;2022-10-31T07:20:45;24.83;;;15.70;;
32329;SDS011;18807;52.434;13.238;2022-10-31T07:28:19;34.35;;;17.52;;
32329;SDS011;18807;52.434;13.238;2022-10-31T07:35:54;37.00;;;18.65;;
32329;SDS011;18807;52.434;13.238;2022-10-31T07:51:02;34.55;;;18.95;;
32329;SDS011;18807;52.434;13.238;2022-10-31T07:58:37;30.65;;;18.77;;
32329;SDS011;18807;52.434;13.238;2022-10-31T08:06:13;28.15;;;17.50;;
32329;SDS011;18807;52.434;13.238;2022-10-31T08:21:21;29.20;;;16.83;;
32329;SDS011;18807;52.434;13.238;2022-10-31T08:28:55;29.63;;;17.05;;
32329;SDS011;18807;52.434;13.238;2022-10-31T08:36:30;28.88;;;17.70;;
32329;SDS011;18807;52.434;13.238;2022-10-31T08:51:39;32.10;;;18.00;;
32329;SDS011;18807;52.434;13.238;2022-10-31T08:59:12;32.30;;;18.40;;
32329;SDS011;18807;52.434;13.238;2022-10-31T09:06:48;36.42;;;19.90;;
32329;SDS011;18807;52.434;13.238;2022-10-31T09:14:41;30.33;;;18.27;;
32329;SDS011;18807;52.434;13.238;2022-10-31T09:22:16;40.58;;;19.95;;
32329;SDS011;18807;52.434;13.238;2022-10-31T09:29:50;36.35;;;20.27;;
32329;SDS011;18807;52.434;13.238;2022-10-31T09:37:25;31.65;;;19.35;;
32329;SDS011;18807;52.434;13.238;2022-10-31T09:52:41;33.95;;;18.23;;
32329;SDS011;18807;52.434;13.238;2022-10-31T10:00:21;40.15;;;21.48;;
32329;SDS011;18807;52.434;13.238;2022-10-31T10:08:00;44.40;;;23.05;;
32329;SDS011;18807;52.434;13.238;2022-10-31T10:15:45;34.05;;;20.17;;
32329;SDS011;18807;52.434;13.238;2022-10-31T10:23:40;39.53;;;20.70;;
32329;SDS011;18807;52.434;13.238;2022-10-31T10:31:26;46.13;;;25.38;;
32329;SDS011;18807;52.434;13.238;2022-10-31T10:39:04;41.58;;;23.48;;
32329;SDS011;18807;52.434;13.238;2022-10-31T10:46:47;40.25;;;23.80;;
32329;SDS011;18807;52.434;13.238;2022-10-31T10:54:45;34.97;;;21.67;;
32329;SDS011;18807;52.434;13.238;2022-10-31T11:02:30;35.33;;;22.27;;
32329;SDS011;18807;52.434;13.238;2022-10-31T11:10:11;40.08;;;22.15;;
32329;SDS011;18807;52.434;13.238;2022-10-31T11:17:48;38.30;;;22.38;;
32329;SDS011;18807;52.434;13.238;2022-10-31T11:25:25;35.30;;;21.10;;
32329;SDS011;18807;52.434;13.238;2022-10-31T11:32:59;32.92;;;20.15;;
32329;SDS011;18807;52.434;13.238;2022-10-31T11:40:35;38.47;;;20.80;;
32329;SDS011;18807;52.434;13.238;2022-10-31T11:55:59;43.83;;;22.38;;
32329;SDS011;18807;52.434;13.238;2022-10-31T12:03:38;41.47;;;23.77;;
32329;SDS011;18807;52.434;13.238;2022-10-31T12:11:32;41.53;;;22.40;;
32329;SDS011;18807;52.434;13.238;2022-10-31T12:19:13;34.45;;;22.20;;
32329;SDS011;18807;52.434;13.238;2022-10-31T12:27:00;39.40;;;21.77;;
32329;SDS011;18807;52.434;13.238;2022-10-31T12:34:47;39.45;;;21.73;;
32329;SDS011;18807;52.434;13.238;2022-10-31T12:42:38;38.78;;;20.95;;
32329;SDS011;18807;52.434;13.238;2022-10-31T12:50:24;34.33;;;19.73;;
32329;SDS011;18807;52.434;13.238;2022-10-31T12:58:07;42.20;;;24.52;;
32329;SDS011;18807;52.434;13.238;2022-10-31T13:05:48;36.33;;;21.55;;
32329;SDS011;18807;52.434;13.238;2022-10-31T13:13:27;49.13;;;25.55;;
32329;SDS011;18807;52.434;13.238;2022-10-31T13:21:08;36.80;;;22.30;;
32329;SDS011;18807;52.434;13.238;2022-10-31T13:28:48;39.42;;;22.98;;
32329;SDS011;18807;52.434;13.238;2022-10-31T13:36:30;38.85;;;24.08;;
32329;SDS011;18807;52.434;13.238;2022-10-31T13:44:12;52.72;;;29.90;;
32329;SDS011;18807;52.434;13.238;2022-10-31T13:51:48;61.75;;;31.58;;
32329;SDS011;18807;52.434;13.238;2022-10-31T13:59:26;50.63;;;27.63;;
32329;SDS011;18807;52.434;13.238;2022-10-31T14:07:05;45.35;;;28.27;;
32329;SDS011;18807;52.434;13.238;2022-10-31T14:14:46;44.72;;;25.45;;
32329;SDS011;18807;52.434;13.238;2022-10-31T14:22:28;57.13;;;29.52;;
32329;SDS011;18807;52.434;13.238;2022-10-31T14:30:18;46.70;;;25.30;;
32329;SDS011;18807;52.434;13.238;2022-10-31T14:46:02;54.80;;;29.07;;
32329;SDS011;18807;52.434;13.238;2022-10-31T14:53:43;50.20;;;27.90;;
32329;SDS011;18807;52.434;13.238;2022-10-31T15:01:23;50.92;;;26.48;;
32329;SDS011;18807;52.434;13.238;2022-10-31T15:09:00;51.22;;;28.70;;
32329;SDS011;18807;52.434;13.238;2022-10-31T15:16:36;50.55;;;26.30;;
32329;SDS011;18807;52.434;13.238;2022-10-31T15:24:16;52.88;;;27.92;;
32329;SDS011;18807;52.434;13.238;2022-10-31T15:31:52;52.30;;;26.60;;
32329;SDS011;18807;52.434;13.238;2022-10-31T15:39:28;54.20;;;27.92;;
32329;SDS011;18807;52.434;13.238;2022-10-31T15:47:04;52.35;;;28.77;;
32329;SDS011;18807;52.434;13.238;2022-10-31T15:54:47;59.03;;;29.98;;
32329;SDS011;18807;52.434;13.238;2022-10-31T16:02:26;59.72;;;27.80;;
32329;SDS011;18807;52.434;13.238;2022-10-31T16:10:01;56.53;;;29.73;;
32329;SDS011;18807;52.434;13.238;2022-10-31T16:17:40;53.33;;;28.23;;
32329;SDS011;18807;52.434;13.238;2022-10-31T16:25:17;48.67;;;26.38;;
32329;SDS011;18807;52.434;13.238;2022-10-31T16:32:58;49.75;;;25.58;;
32329;SDS011;18807;52.434;13.238;2022-10-31T16:40:34;51.92;;;28.17;;
32329;SDS011;18807;52.434;13.238;2022-10-31T16:48:10;52.67;;;28.37;;
32329;SDS011;18807;52.434;13.238;2022-10-31T16:55:48;55.58;;;28.73;;
32329;SDS011;18807;52.434;13.238;2022-10-31T17:03:28;64.85;;;32.90;;
32329;SDS011;18807;52.434;13.238;2022-10-31T17:11:03;69.90;;;34.97;;
32329;SDS011;18807;52.434;13.238;2022-10-31T17:18:39;78.88;;;36.42;;
32329;SDS011;18807;52.434;13.238;2022-10-31T17:26:15;63.30;;;34.38;;
32329;SDS011;18807;52.434;13.238;2022-10-31T17:33:50;63.97;;;33.88;;
32329;SDS011;18807;52.434;13.238;2022-10-31T17:48:58;61.15;;;31.70;;
32329;SDS011;18807;52.434;13.238;2022-10-31T17:56:33;82.60;;;39.38;;
32329;SDS011;18807;52.434;13.238;2022-10-31T18:04:08;68.32;;;35.50;;
32329;SDS011;18807;52.434;13.238;2022-10-31T18:11:42;75.53;;;38.08;;
32329;SDS011;18807;52.434;13.238;2022-10-31T18:19:17;80.37;;;38.30;;
32329;SDS011;18807;52.434;13.238;2022-10-31T18:34:26;68.45;;;32.90;;
32329;SDS011;18807;52.434;13.238;2022-10-31T18:49:35;60.47;;;32.38;;
32329;SDS011;18807;52.434;13.238;2022-10-31T19:04:44;54.45;;;29.55;;
32329;SDS011;18807;52.434;13.238;2022-10-31T19:19:53;65.63;;;31.65;;
32329;SDS011;18807;52.434;13.238;2022-10-31T19:27:27;62.42;;;32.97;;
32329;SDS011;18807;52.434;13.238;2022-10-31T19:35:02;59.45;;;31.42;;
32329;SDS011;18807;52.434;13.238;2022-10-31T19:42:40;69.88;;;35.28;;
32329;SDS011;18807;52.434;13.238;2022-10-31T19:50:15;80.95;;;38.80;;
32329;SDS011;18807;52.434;13.238;2022-10-31T20:05:42;81.05;;;38.45;;
32329;SDS011;18807;52.434;13.238;2022-10-31T20:13:17;81.10;;;36.53;;
32329;SDS011;18807;52.434;13.238;2022-10-31T20:20:52;81.17;;;34.87;;
32329;SDS011;18807;52.434;13.238;2022-10-31T20:28:26;74.40;;;36.70;;
32329;SDS011;18807;52.434;13.238;2022-10-31T20:36:03;64.97;;;35.28;;
32329;SDS011;18807;52.434;13.238;2022-10-31T20:43:38;65.53;;;33.53;;
32329;SDS011;18807;52.434;13.238;2022-10-31T20:51:13;64.18;;;32.35;;
32329;SDS011;18807;52.434;13.238;2022-10-31T20:58:49;63.50;;;33.28;;
32329;SDS011;18807;52.434;13.238;2022-10-31T21:06:24;64.70;;;31.25;;
32329;SDS011;18807;52.434;13.238;2022-10-31T21:13:58;63.55;;;34.10;;
32329;SDS011;18807;52.434;13.238;2022-10-31T21:21:34;60.57;;;32.67;;
32329;SDS011;18807;52.434;13.238;2022-10-31T21:29:09;60.00;;;32.05;;
32329;SDS011;18807;52.434;13.238;2022-10-31T21:36:46;52.20;;;29.63;;
32329;SDS011;18807;52.434;13.238;2022-10-31T21:51:55;50.38;;;30.52;;
32329;SDS011;18807;52.434;13.238;2022-10-31T22:07:03;55.60;;;31.63;;
32329;SDS011;18807;52.434;13.238;2022-10-31T22:22:18;49.35;;;30.10;;
32329;SDS011;18807;52.434;13.238;2022-10-31T22:37:29;50.33;;;32.30;;
32329;SDS011;18807;52.434;13.238;2022-10-31T22:52:38;72.35;;;43.35;;
32329;SDS011;18807;52.434;13.238;2022-10-31T23:07:47;60.70;;;38.83;;
32329;SDS011;18807;52.434;13.238;2022-10-31T23:22:56;80.72;;;46.38;;
32329;SDS011;18807;52.434;13.238;2022-10-31T23:30:30;70.28;;;43.90;;
32329;SDS011;18807;52.434;13.238;2022-10-31T23:38:05;76.43;;;47.03;;
32329;SDS011;18807;52.434;13.238;2022-10-31T23:53:15;79.00;;;45.50;;
